Euskara    
Meteorología y climatología de Navarra
Datos de la estación - Meteo Navarra

Estación de Aralar GN

Altitud 1344 m.


Datos desde el 08/04/2021 hasta el 09/04/2021 en horario solar
Los datos son PROVISIONALES

Anterior Página 1 de 1 Siguiente Descargar: Formato para Excel 2000 o superior   Formato csv   Formato para OpenOffice Calc
Fecha Temperatura Humedad relativa Radiación global Insolación Precipitación Vel. viento 10 m Vel. viento 10 m Dir. viento 10 m
°C % W/m² s l/m² m/s km/h °
08/04/2021 0:00 2.5 51 0.0 0 0.0 9.8 35.3 165
08/04/2021 0:10 2.3 52 0.0 0 0.0 9.7 35.0 164
08/04/2021 0:20 2.1 53 0.0 0 0.0 9.4 33.7 160
08/04/2021 0:30 1.8 54 0.0 0 0.0 9.7 34.8 159
08/04/2021 0:40 1.9 57 0.0 0 0.0 9.8 35.1 157
08/04/2021 0:50 1.6 60 0.0 0 0.0 9.7 35.0 158
08/04/2021 1:00 1.6 64 0.0 0 0.0 10.5 37.8 159
08/04/2021 1:10 1.8 66 0.0 0 0.0 11.3 40.8 160
08/04/2021 1:20 2.0 66 0.0 0 0.0 10.8 38.9 157
08/04/2021 1:30 2.1 65 0.0 0 0.0 10.7 38.4 160
08/04/2021 1:40 1.6 74 0.0 0 0.0 10.6 38.0 160
08/04/2021 1:50 2.0 76 0.0 0 0.0 10.5 37.7 158
08/04/2021 2:00 1.8 83 0.0 0 0.0 10.1 36.5 155
08/04/2021 2:10 1.7 87 0.0 0 0.0 10.3 37.1 156
08/04/2021 2:20 1.5 89 0.0 0 0.0 10.5 37.7 157
08/04/2021 2:30 1.4 89 0.0 0 0.0 11.1 40.1 160
08/04/2021 2:40 1.7 86 0.0 0 0.0 11.7 42.2 158
08/04/2021 2:50 1.6 85 0.0 0 0.0 10.6 38.0 156
08/04/2021 3:00 1.3 87 0.0 0 0.0 10.6 38.3 156
08/04/2021 3:10 1.4 86 0.0 0 0.0 10.7 38.5 158
08/04/2021 3:20 1.3 87 0.0 0 0.0 10.7 38.5 161
08/04/2021 3:30 1.2 90 0.0 0 0.0 10.5 37.9 162
08/04/2021 3:40 1.1 92 0.0 0 0.0 9.6 34.4 159
08/04/2021 3:50 1.1 93 0.0 0 0.0 10.2 36.7 158
08/04/2021 4:00 1.2 93 0.0 0 0.0 10.0 36.0 164
08/04/2021 4:10 1.0 92 0.0 0 0.0 8.9 32.0 163
08/04/2021 4:20 1.0 92 0.0 0 0.0 9.4 33.8 157
08/04/2021 4:30 0.9 93 0.0 0 0.0 10.5 37.7 160
08/04/2021 4:40 0.9 94 0.0 0 0.0 10.1 36.5 159
08/04/2021 4:50 0.8 95 0.0 0 0.0 10.3 37.1 160
08/04/2021 5:00 0.8 94 0.0 0 0.0 10.6 38.0 162
08/04/2021 5:10 0.8 95 0.0 0 0.0 10.7 38.6 160
08/04/2021 5:20 0.5 95 0.0 0 0.0 10.3 37.1 165
08/04/2021 5:30 0.7 94 0.0 0 0.0 10.3 36.9 163
08/04/2021 5:40 0.6 95 0.0 0 0.0 10.5 37.7 161
08/04/2021 5:50 0.6 94 3.2 0 0.0 10.6 38.2 162
08/04/2021 6:00 0.6 94 20.9 24 0.0 11.2 40.2 161
08/04/2021 6:10 0.6 94 43.3 470 0.0 10.4 37.3 164
08/04/2021 6:20 0.7 95 77.8 590 0.0 10.7 38.3 162
08/04/2021 6:30 0.8 95 96.1 486 0.0 11.1 40.0 159
08/04/2021 6:40 0.7 96 126.6 508 0.0 10.4 37.3 157
08/04/2021 6:50 1.0 97 188.5 580 0.0 10.4 37.3 160
08/04/2021 7:00 0.7 98 115.9 200 0.0 10.5 37.6 156
08/04/2021 7:10 0.6 100 114.6 182 0.0 9.8 35.4 158
08/04/2021 7:20 0.6 100 116.4 116 0.0 10.0 36.1 159
08/04/2021 7:30 0.9 100 193.4 308 0.0 10.0 36.1 158
08/04/2021 7:40 1.0 100 159.5 160 0.0 9.5 34.0 158
08/04/2021 7:50 0.9 100 172.5 172 0.0 10.0 36.0 160
08/04/2021 8:00 1.1 100 192.1 170 0.0 9.4 33.9 160
08/04/2021 8:10 1.2 100 207.8 164 0.0 9.7 34.9 163
08/04/2021 8:20 1.4 100 218.8 110 0.0 9.1 32.9 160
08/04/2021 8:30 1.5 100 272.3 260 0.0 9.3 33.6 161
08/04/2021 8:40 1.6 100 226.0 100 0.0 9.3 33.6 158
08/04/2021 8:50 1.9 100 389.4 406 0.0 9.4 33.8 159
08/04/2021 9:00 2.3 100 406.0 466 0.0 9.4 33.8 161
08/04/2021 9:10 2.3 100 306.9 184 0.0 9.2 33.3 158
08/04/2021 9:20 2.4 99 340.8 260 0.0 9.4 33.7 160
08/04/2021 9:30 2.9 98 449.0 384 0.0 9.2 33.0 160
08/04/2021 9:40 3.2 96 500.0 496 0.0 9.2 33.1 159
08/04/2021 9:50 3.3 95 488.4 434 0.0 8.9 32.2 160
08/04/2021 10:00 3.6 95 530.1 482 0.0 8.4 30.3 159
08/04/2021 10:10 4.4 90 782.8 594 0.0 8.7 31.1 160
08/04/2021 10:20 5.0 87 789.2 584 0.0 8.5 30.6 162
08/04/2021 10:30 5.0 86 731.2 600 0.0 8.0 28.7 161
08/04/2021 10:40 5.0 87 764.6 584 0.0 7.9 28.4 159
08/04/2021 10:50 5.6 85 803.0 600 0.0 8.0 28.7 162
08/04/2021 11:00 5.6 84 813.0 600 0.0 7.9 28.3 160
08/04/2021 11:10 5.8 83 898.0 600 0.0 8.0 28.8 162
08/04/2021 11:20 6.1 82 851.0 600 0.0 7.7 27.8 161
08/04/2021 11:30 6.0 83 702.5 600 0.0 7.4 26.7 159
08/04/2021 11:40 6.1 82 811.0 600 0.0 7.5 27.1 160
08/04/2021 11:50 6.5 80 876.0 600 0.0 7.1 25.5 161
08/04/2021 12:00 6.9 79 836.0 600 0.0 6.9 24.8 164
08/04/2021 12:10 6.9 78 749.7 600 0.0 6.7 24.1 164
08/04/2021 12:20 6.9 78 938.0 600 0.0 6.6 23.6 158
08/04/2021 12:30 7.3 76 924.0 600 0.0 6.9 24.8 163
08/04/2021 12:40 7.6 75 864.0 600 0.0 6.9 24.9 164
08/04/2021 12:50 7.7 76 735.6 600 0.0 7.1 25.6 162
08/04/2021 13:00 7.9 75 703.7 600 0.0 7.4 26.6 161
08/04/2021 13:10 7.9 76 780.1 600 0.0 7.2 25.7 157
08/04/2021 13:20 8.0 76 715.1 600 0.0 6.8 24.4 156
08/04/2021 13:30 8.4 74 802.0 600 0.0 6.4 23.1 155
08/04/2021 13:40 8.3 74 709.9 600 0.0 6.2 22.4 157
08/04/2021 13:50 8.6 73 737.9 600 0.0 6.0 21.7 160
08/04/2021 14:00 9.1 71 510.6 600 0.0 5.7 20.7 170
08/04/2021 14:10 8.6 73 559.3 600 0.0 5.7 20.6 174
08/04/2021 14:20 9.1 72 690.0 600 0.0 5.9 21.2 166
08/04/2021 14:30 9.4 70 556.4 600 0.0 5.3 18.9 161
08/04/2021 14:40 9.4 71 455.4 600 0.0 4.9 17.6 163
08/04/2021 14:50 9.3 72 619.8 600 0.0 4.3 15.4 170
08/04/2021 15:00 9.6 70 415.4 522 0.0 4.6 16.7 162
08/04/2021 15:10 9.5 72 560.2 600 0.0 5.3 19.1 169
08/04/2021 15:20 9.8 70 647.1 600 0.0 5.5 19.7 161
08/04/2021 15:30 9.9 69 647.1 600 0.0 4.9 17.7 164
08/04/2021 15:40 9.8 70 600.0 600 0.0 5.1 18.2 162
08/04/2021 15:50 9.9 71 549.0 600 0.0 4.4 15.9 164
08/04/2021 16:00 9.9 69 501.8 600 0.0 4.5 16.2 163
08/04/2021 16:10 10.0 70 468.5 600 0.0 4.4 15.7 168
08/04/2021 16:20 10.1 69 403.5 600 0.0 4.8 17.1 174
08/04/2021 16:30 9.8 70 339.3 600 0.0 5.3 19.1 165
08/04/2021 16:40 9.6 71 321.5 600 0.0 4.8 17.2 162
08/04/2021 16:50 9.6 71 342.5 600 0.0 4.7 17.1 165
08/04/2021 17:00 9.7 71 308.5 600 0.0 5.1 18.3 169
08/04/2021 17:10 9.5 70 147.7 188 0.0 5.1 18.4 172
08/04/2021 17:20 9.2 72 189.4 558 0.0 4.6 16.5 180
08/04/2021 17:30 9.1 73 168.8 582 0.0 5.0 18.1 173
08/04/2021 17:40 8.9 74 125.0 494 0.0 5.0 18.0 167
08/04/2021 17:50 8.8 75 50.7 6 0.0 5.2 18.6 176
08/04/2021 18:00 8.5 76 34.9 0 0.0 5.3 19.1 176
08/04/2021 18:10 8.5 76 10.8 0 0.0 5.1 18.2 183
08/04/2021 18:20 8.5 76 0.0 0 0.0 5.1 18.4 187
08/04/2021 18:30 8.4 77 0.0 0 0.0 4.8 17.4 194
08/04/2021 18:40 8.1 79 0.0 0 0.0 3.8 13.5 207
08/04/2021 18:50 8.0 80 0.0 0 0.0 5.1 18.4 198
08/04/2021 19:00 7.9 79 0.0 0 0.0 5.7 20.6 192
08/04/2021 19:10 8.2 76 0.0 0 0.0 6.2 22.2 187
08/04/2021 19:20 8.2 78 0.0 0 0.0 5.7 20.6 180
08/04/2021 19:30 8.2 78 0.0 0 0.0 7.2 25.8 185
08/04/2021 19:40 8.7 75 0.0 0 0.0 6.1 21.9 190
08/04/2021 19:50 8.9 74 0.0 0 0.0 5.4 19.4 180
08/04/2021 20:00 7.9 80 0.0 0 0.0 5.0 17.9 166
08/04/2021 20:10 7.6 83 0.0 0 0.0 4.4 15.8 162
08/04/2021 20:20 7.4 84 0.0 0 0.0 4.0 14.4 150
08/04/2021 20:30 7.2 85 0.0 0 0.0 4.6 16.6 155
08/04/2021 20:40 7.2 86 0.0 0 0.0 5.7 20.4 160
08/04/2021 20:50 7.1 86 0.0 0 0.0 6.9 24.8 175
08/04/2021 21:00 7.1 86 0.0 0 0.0 7.9 28.3 177
08/04/2021 21:10 7.2 86 0.0 0 0.0 7.1 25.4 190
08/04/2021 21:20 7.3 85 0.0 0 0.0 6.8 24.5 202
08/04/2021 21:30 7.2 85 0.0 0 0.0 6.0 21.7 201
08/04/2021 21:40 7.0 85 0.0 0 0.0 5.4 19.4 203
08/04/2021 21:50 6.9 86 0.0 0 0.0 7.6 27.2 190
08/04/2021 22:00 6.7 87 0.0 0 0.0 6.2 22.2 204
08/04/2021 22:10 6.8 86 0.0 0 0.0 6.0 21.5 209
08/04/2021 22:20 6.7 87 0.0 0 0.0 7.3 26.1 207
08/04/2021 22:30 6.5 87 0.0 0 0.0 8.8 31.6 203
08/04/2021 22:40 6.6 86 0.0 0 0.0 7.4 26.6 204
08/04/2021 22:50 6.6 85 0.0 0 0.0 8.6 30.9 200
08/04/2021 23:00 6.3 91 0.0 0 0.1 6.7 24.0 195
08/04/2021 23:10 6.2 93 0.0 0 0.0 1.8 6.4 215
08/04/2021 23:20 5.9 95 0.0 0 0.0 2.8 10.0 209
08/04/2021 23:30 5.7 97 0.0 0 0.0 7.1 25.7 194
08/04/2021 23:40 5.8 96 0.0 0 0.0 6.9 24.9 189
08/04/2021 23:50 5.6 96 0.0 0 0.0 4.7 17.0 159
Anterior Página 1 de 1 Siguiente
Los datos de precipitación registrados en estaciones que están en cumbres son inferiores a lo real, como consecuencia del efecto del viento y de la nieve.


NOTA: Tipo de datos según el color:
   - Valores diarios o 10 minutos correctos
   - Valores diarios calculados a partir de un número de datos 10 minutos menor que 144 y mayor que 120, o de un número de datos semihorarios menor que 48 y mayor que 40 (caso de las estaciones de INTIA Y Ministerio)
   - Valores diez minutos estimados


Contacto        Enlaces        Aviso legal